Time,TemperatureF,DewpointF,PressureIn,WindDirection,WindDirectionDegrees,WindSpeedMPH,WindSpeedGustMPH,Humidity,HourlyPrecipIn,Conditions,Clouds,dailyrainin,SoftwareType,DateUTC
2013-02-26 00:02:00,48.0,48.0,29.53,East,101,11.0,33.0,100,0.05,,,0.08,,2013-02-26 06:02:00,
2013-02-26 00:11:00,48.0,48.0,29.53,East,101,11.0,33.0,100,0.05,,,0.08,,2013-02-26 06:11:00,
2013-02-26 00:21:00,48.0,48.0,29.55,ESE,120,17.0,33.0,99,0.00,,,0.08,,2013-02-26 06:21:00,
2013-02-26 00:31:00,48.0,47.0,29.54,ESE,110,20.0,28.0,98,0.00,,,0.08,,2013-02-26 06:31:00,
2013-02-26 00:41:00,48.0,47.0,29.54,ESE,110,20.0,28.0,98,0.00,,,0.08,,2013-02-26 06:41:00,
2013-02-26 00:52:00,48.0,47.0,29.55,East,91,10.0,31.0,97,0.00,,,0.08,,2013-02-26 06:52:00,
2013-02-26 01:01:00,48.0,47.0,29.53,ESE,114,17.0,29.0,97,0.01,,,0.09,,2013-02-26 07:01:00,
2013-02-26 01:11:00,48.0,47.0,29.53,ESE,114,17.0,29.0,97,0.01,,,0.09,,2013-02-26 07:11:00,
2013-02-26 01:22:00,47.0,47.0,29.50,ESE,121,16.0,26.0,100,0.03,,,0.11,,2013-02-26 07:22:00,
2013-02-26 01:31:00,47.0,47.0,29.50,East,88,8.0,33.0,100,0.03,,,0.11,,2013-02-26 07:31:00,
2013-02-26 01:41:00,47.0,47.0,29.50,East,88,8.0,33.0,100,0.03,,,0.11,,2013-02-26 07:41:00,
2013-02-26 01:52:00,48.0,48.0,29.51,ENE,74,6.0,31.0,100,0.03,,,0.11,,2013-02-26 07:52:00,
2013-02-26 02:01:00,48.0,48.0,29.54,SSE,159,16.0,28.0,100,0.01,,,0.11,,2013-02-26 08:01:00,
2013-02-26 02:11:00,48.0,48.0,29.54,SSE,159,16.0,28.0,100,0.01,,,0.11,,2013-02-26 08:11:00,
2013-02-26 02:21:00,48.0,48.0,29.54,SSE,159,16.0,28.0,100,0.01,,,0.11,,2013-02-26 08:21:00,
2013-02-26 02:31:00,48.0,48.0,29.52,East,92,7.0,35.0,100,0.00,,,0.11,,2013-02-26 08:31:00,
2013-02-26 02:41:00,48.0,48.0,29.52,East,92,7.0,35.0,100,0.00,,,0.11,,2013-02-26 08:41:00,
2013-02-26 02:52:00,47.0,47.0,29.52,SE,141,18.0,34.0,100,0.00,,,0.11,,2013-02-26 08:52:00,
2013-02-26 03:01:00,47.0,47.0,29.49,SE,129,20.0,37.0,100,0.01,,,0.12,,2013-02-26 09:01:00,
2013-02-26 03:11:00,47.0,47.0,29.49,SE,129,20.0,37.0,100,0.01,,,0.12,,2013-02-26 09:11:00,
2013-02-26 03:21:00,47.0,47.0,29.49,ESE,122,26.0,29.0,100,0.01,,,0.12,,2013-02-26 09:21:00,
2013-02-26 03:31:00,47.0,47.0,29.49,ESE,120,19.0,30.0,100,0.01,,,0.12,,2013-02-26 09:31:00,
2013-02-26 03:43:00,47.0,47.0,29.49,ESE,120,19.0,30.0,100,0.01,,,0.12,,2013-02-26 09:43:00,
2013-02-26 03:52:00,47.0,47.0,29.49,ESE,120,19.0,30.0,100,0.01,,,0.12,,2013-02-26 09:52:00,
2013-02-26 04:01:00,47.0,46.0,29.52,SE,125,11.0,26.0,98,0.00,,,0.12,,2013-02-26 10:01:00,
2013-02-26 04:11:00,47.0,46.0,29.52,SE,125,11.0,26.0,98,0.00,,,0.12,,2013-02-26 10:11:00,
2013-02-26 04:21:00,47.0,46.0,29.52,SE,142,17.0,30.0,98,0.00,,,0.12,,2013-02-26 10:21:00,
2013-02-26 04:31:00,47.0,46.0,29.51,West,267,11.0,24.0,98,0.00,,,0.12,,2013-02-26 10:31:00,
2013-02-26 04:41:00,47.0,46.0,29.51,West,267,11.0,24.0,98,0.00,,,0.12,,2013-02-26 10:41:00,
2013-02-26 04:52:00,47.0,46.0,29.49,ESE,115,13.0,28.0,97,0.00,,,0.12,,2013-02-26 10:52:00,
2013-02-26 05:01:00,47.0,46.0,29.47,SSE,159,9.0,35.0,97,0.00,,,0.12,,2013-02-26 11:01:00,
2013-02-26 05:12:00,47.0,46.0,29.47,SSE,159,9.0,35.0,97,0.00,,,0.12,,2013-02-26 11:12:00,
2013-02-26 05:21:00,47.0,46.0,29.48,ESE,123,18.0,32.0,98,0.00,,,0.12,,2013-02-26 11:21:00,
2013-02-26 05:32:00,46.0,46.0,29.48,SSE,148,13.0,25.0,99,0.00,,,0.12,,2013-02-26 11:32:00,
2013-02-26 05:41:00,46.0,46.0,29.48,SE,129,10.0,27.0,99,0.00,,,0.12,,2013-02-26 11:41:00,
2013-02-26 05:52:00,46.0,46.0,29.48,SE,129,10.0,27.0,99,0.00,,,0.12,,2013-02-26 11:52:00,
2013-02-26 06:01:00,46.0,46.0,29.48,ESE,123,11.0,28.0,99,0.00,,,0.12,,2013-02-26 12:01:00,
2013-02-26 06:11:00,46.0,46.0,29.48,ESE,123,11.0,28.0,99,0.00,,,0.12,,2013-02-26 12:11:00,
2013-02-26 06:22:00,46.0,46.0,29.48,ESE,123,11.0,28.0,99,0.00,,,0.12,,2013-02-26 12:22:00,
2013-02-26 06:32:00,46.0,46.0,29.47,SE,144,20.0,29.0,100,0.00,,,0.12,,2013-02-26 12:32:00,
2013-02-26 06:42:00,46.0,46.0,29.47,SE,144,20.0,29.0,100,0.00,,,0.12,,2013-02-26 12:42:00,
2013-02-26 06:53:00,46.0,46.0,29.47,SE,134,19.0,35.0,99,0.00,,,0.12,,2013-02-26 12:53:00,
2013-02-26 07:01:00,46.0,46.0,29.46,East,93,13.0,32.0,99,0.00,,,0.12,,2013-02-26 13:01:00,
2013-02-26 07:11:00,46.0,46.0,29.46,East,93,13.0,32.0,99,0.00,,,0.12,,2013-02-26 13:11:00,
2013-02-26 07:21:00,46.0,46.0,29.46,East,93,13.0,32.0,99,0.00,,,0.12,,2013-02-26 13:21:00,
2013-02-26 07:32:00,46.0,46.0,29.47,SW,214,14.0,25.0,100,0.00,,,0.12,,2013-02-26 13:32:00,
2013-02-26 07:42:00,46.0,46.0,29.47,SW,214,14.0,25.0,100,0.00,,,0.12,,2013-02-26 13:42:00,
2013-02-26 07:51:00,45.0,45.0,29.52,WNW,301,9.0,21.0,100,0.05,,,0.17,,2013-02-26 13:51:00,
2013-02-26 08:01:00,46.0,46.0,29.52,South,171,12.0,17.0,100,0.06,,,0.18,,2013-02-26 14:01:00,
2013-02-26 08:11:00,46.0,46.0,29.52,South,171,12.0,17.0,100,0.06,,,0.18,,2013-02-26 14:11:00,
2013-02-26 08:21:00,46.0,46.0,29.52,South,171,12.0,17.0,100,0.06,,,0.18,,2013-02-26 14:21:00,
2013-02-26 08:31:00,47.0,47.0,29.52,SSE,156,10.0,18.0,100,0.06,,,0.18,,2013-02-26 14:31:00,
2013-02-26 08:42:00,47.0,47.0,29.52,SSE,156,10.0,18.0,100,0.06,,,0.18,,2013-02-26 14:42:00,
2013-02-26 08:52:00,46.0,46.0,29.52,SE,138,10.0,14.0,100,0.01,,,0.18,,2013-02-26 14:52:00,
2013-02-26 09:02:00,46.0,46.0,29.51,SSE,147,12.0,20.0,100,0.00,,,0.18,,2013-02-26 15:02:00,
2013-02-26 09:11:00,46.0,46.0,29.51,SSE,147,12.0,20.0,100,0.00,,,0.18,,2013-02-26 15:11:00,
2013-02-26 09:21:00,47.0,47.0,29.51,East,99,12.0,18.0,100,0.00,,,0.18,,2013-02-26 15:21:00,
2013-02-26 09:32:00,47.0,47.0,29.51,SSE,168,8.0,21.0,100,0.01,,,0.19,,2013-02-26 15:32:00,
2013-02-26 09:42:00,47.0,47.0,29.51,SSE,168,8.0,21.0,100,0.01,,,0.19,,2013-02-26 15:42:00,
2013-02-26 09:51:00,47.0,47.0,29.51,ESE,107,5.0,18.0,100,0.01,,,0.19,,2013-02-26 15:51:00,
2013-02-26 10:01:00,46.0,46.0,29.54,West,272,13.0,17.0,100,0.04,,,0.22,,2013-02-26 16:01:00,
2013-02-26 10:11:00,46.0,46.0,29.54,West,272,13.0,17.0,100,0.04,,,0.22,,2013-02-26 16:11:00,
2013-02-26 10:22:00,46.0,46.0,29.54,West,272,13.0,17.0,100,0.04,,,0.22,,2013-02-26 16:22:00,
2013-02-26 10:32:00,44.0,44.0,29.55,NW,324,6.0,17.0,100,0.04,,,0.22,,2013-02-26 16:32:00,
2013-02-26 10:42:00,44.0,44.0,29.55,NW,324,6.0,17.0,100,0.04,,,0.22,,2013-02-26 16:42:00,
2013-02-26 10:51:00,44.0,44.0,29.56,SW,234,8.0,10.0,100,0.03,,,0.22,,2013-02-26 16:51:00,
2013-02-26 11:01:00,46.0,45.0,29.56,WSW,240,13.0,21.0,98,0.00,,,0.22,,2013-02-26 17:01:00,
2013-02-26 11:11:00,47.0,45.0,29.57,WNW,285,5.0,20.0,92,0.00,,,0.22,,2013-02-26 17:11:00,
2013-02-26 11:21:00,47.0,45.0,29.57,WNW,285,5.0,20.0,92,0.00,,,0.22,,2013-02-26 17:21:00,
2013-02-26 11:32:00,48.0,42.0,29.57,WSW,249,9.0,23.0,81,0.00,,,0.22,,2013-02-26 17:32:00,
2013-02-26 11:41:00,48.0,42.0,29.57,WSW,249,9.0,23.0,81,0.00,,,0.22,,2013-02-26 17:41:00,
2013-02-26 11:52:00,48.0,41.0,29.58,SSW,209,16.0,25.0,78,0.00,,,0.22,,2013-02-26 17:52:00,
2013-02-26 12:01:00,48.0,41.0,29.58,WSW,252,10.0,26.0,77,0.00,,,0.22,,2013-02-26 18:01:00,
2013-02-26 12:12:00,48.0,41.0,29.58,WSW,252,10.0,26.0,77,0.00,,,0.22,,2013-02-26 18:12:00,
2013-02-26 12:21:00,48.0,40.0,29.58,WNW,298,17.0,25.0,75,0.00,,,0.22,,2013-02-26 18:21:00,
2013-02-26 12:32:00,48.0,40.0,29.58,WNW,298,17.0,25.0,75,0.00,,,0.22,,2013-02-26 18:32:00,
2013-02-26 12:42:00,48.0,40.0,29.58,WNW,298,17.0,25.0,75,0.00,,,0.22,,2013-02-26 18:42:00,
2013-02-26 12:52:00,47.0,40.0,29.57,West,273,12.0,25.0,76,0.00,,,0.22,,2013-02-26 18:52:00,
2013-02-26 13:01:00,48.0,40.0,29.57,SW,230,14.0,21.0,75,0.00,,,0.22,,2013-02-26 19:01:00,
2013-02-26 13:11:00,48.0,40.0,29.57,SW,230,14.0,21.0,75,0.00,,,0.22,,2013-02-26 19:11:00,
2013-02-26 13:22:00,47.0,40.0,29.57,West,268,11.0,27.0,76,0.00,,,0.22,,2013-02-26 19:22:00,
2013-02-26 13:32:00,47.0,40.0,29.57,West,268,11.0,27.0,76,0.00,,,0.22,,2013-02-26 19:32:00,
2013-02-26 13:41:00,47.0,40.0,29.57,West,268,11.0,27.0,76,0.00,,,0.22,,2013-02-26 19:41:00,
2013-02-26 13:52:00,48.0,39.0,29.58,SW,232,19.0,30.0,71,0.01,,,0.23,,2013-02-26 19:52:00,
2013-02-26 14:01:00,48.0,39.0,29.58,WNW,301,10.0,30.0,72,0.01,,,0.23,,2013-02-26 20:01:00,
2013-02-26 14:11:00,48.0,39.0,29.58,WNW,301,10.0,30.0,72,0.01,,,0.23,,2013-02-26 20:11:00,
2013-02-26 14:21:00,47.0,38.0,29.59,SW,220,20.0,28.0,72,0.01,,,0.23,,2013-02-26 20:21:00,
2013-02-26 14:31:00,47.0,39.0,29.60,WNW,283,13.0,28.0,73,0.01,,,0.23,,2013-02-26 20:31:00,
2013-02-26 14:41:00,47.0,39.0,29.60,WNW,283,13.0,28.0,73,0.01,,,0.23,,2013-02-26 20:41:00,
2013-02-26 14:51:00,46.0,39.0,29.61,West,269,6.0,24.0,77,0.00,,,0.23,,2013-02-26 20:51:00,
2013-02-26 15:01:00,46.0,39.0,29.61,SSW,198,11.0,19.0,77,0.00,,,0.23,,2013-02-26 21:01:00,
2013-02-26 15:11:00,46.0,40.0,29.62,SW,222,8.0,18.0,79,0.00,,,0.23,,2013-02-26 21:11:00,
2013-02-26 15:21:00,46.0,40.0,29.62,SW,222,8.0,18.0,79,0.00,,,0.23,,2013-02-26 21:21:00,
2013-02-26 15:31:00,46.0,40.0,29.62,West,262,17.0,24.0,78,0.00,,,0.23,,2013-02-26 21:31:00,
2013-02-26 15:41:00,46.0,40.0,29.62,West,262,17.0,24.0,78,0.00,,,0.23,,2013-02-26 21:41:00,
2013-02-26 15:51:00,45.0,38.0,29.63,WSW,251,18.0,27.0,77,0.00,,,0.23,,2013-02-26 21:51:00,
2013-02-26 16:01:00,45.0,40.0,29.63,WSW,237,13.0,23.0,81,0.00,,,0.23,,2013-02-26 22:01:00,
2013-02-26 16:11:00,44.0,39.0,29.63,West,276,20.0,21.0,84,0.00,,,0.23,,2013-02-26 22:11:00,
2013-02-26 16:21:00,44.0,39.0,29.63,West,276,20.0,21.0,84,0.00,,,0.23,,2013-02-26 22:21:00,
2013-02-26 16:31:00,44.0,40.0,29.63,West,265,6.0,23.0,85,0.00,,,0.23,,2013-02-26 22:31:00,
2013-02-26 16:41:00,44.0,40.0,29.63,West,265,6.0,23.0,85,0.00,,,0.23,,2013-02-26 22:41:00,
2013-02-26 16:52:00,44.0,39.0,29.65,West,281,9.0,22.0,84,0.00,,,0.23,,2013-02-26 22:52:00,
2013-02-26 17:01:00,44.0,39.0,29.65,WNW,289,11.0,22.0,83,0.00,,,0.23,,2013-02-26 23:01:00,
2013-02-26 17:11:00,44.0,39.0,29.65,WNW,289,11.0,22.0,83,0.00,,,0.23,,2013-02-26 23:11:00,
2013-02-26 17:21:00,44.0,39.0,29.65,West,266,16.0,21.0,84,0.00,,,0.23,,2013-02-26 23:21:00,
2013-02-26 17:31:00,44.0,39.0,29.65,West,266,16.0,21.0,84,0.00,,,0.23,,2013-02-26 23:31:00,
2013-02-26 17:41:00,44.0,39.0,29.65,West,266,16.0,21.0,84,0.00,,,0.23,,2013-02-26 23:41:00,
2013-02-26 17:52:00,43.0,39.0,29.66,West,273,15.0,31.0,86,0.00,,,0.23,,2013-02-26 23:52:00,
2013-02-26 18:01:00,42.0,40.0,29.68,NW,305,10.0,20.0,91,0.00,,,0.23,,2013-02-27 00:01:00,
2013-02-26 18:11:00,42.0,40.0,29.68,NW,305,10.0,20.0,91,0.00,,,0.23,,2013-02-27 00:11:00,
2013-02-26 18:21:00,42.0,40.0,29.68,NNW,328,8.0,17.0,92,0.00,,,0.23,,2013-02-27 00:21:00,
2013-02-26 18:31:00,42.0,41.0,29.70,WNW,284,22.0,25.0,95,0.00,,,0.23,,2013-02-27 00:31:00,
2013-02-26 18:41:00,42.0,41.0,29.70,WNW,284,22.0,25.0,95,0.00,,,0.23,,2013-02-27 00:41:00,
2013-02-26 18:52:00,41.0,39.0,29.70,West,281,13.0,19.0,94,0.00,,,0.23,,2013-02-27 00:52:00,
2013-02-26 19:01:00,41.0,39.0,29.72,NW,310,10.0,16.0,93,0.00,,,0.23,,2013-02-27 01:01:00,
2013-02-26 19:11:00,41.0,39.0,29.72,NW,310,10.0,16.0,93,0.00,,,0.23,,2013-02-27 01:11:00,
2013-02-26 19:21:00,42.0,39.0,29.72,West,266,7.0,18.0,90,0.00,,,0.23,,2013-02-27 01:21:00,
2013-02-26 19:31:00,42.0,39.0,29.73,WNW,292,3.0,10.0,89,0.00,,,0.23,,2013-02-27 01:31:00,
2013-02-26 19:42:00,42.0,39.0,29.73,WNW,292,3.0,10.0,89,0.00,,,0.23,,2013-02-27 01:42:00,
2013-02-26 19:52:00,42.0,39.0,29.73,SW,217,4.0,11.0,90,0.00,,,0.23,,2013-02-27 01:52:00,
2013-02-26 20:01:00,42.0,39.0,29.74,SW,223,4.0,10.0,90,0.00,,,0.23,,2013-02-27 02:01:00,
2013-02-26 20:14:00,42.0,39.0,29.74,SW,223,4.0,10.0,90,0.00,,,0.23,,2013-02-27 02:14:00,
2013-02-26 20:22:00,42.0,39.0,29.74,West,274,8.0,16.0,89,0.00,,,0.23,,2013-02-27 02:22:00,
2013-02-26 20:32:00,42.0,38.0,29.75,West,278,9.0,16.0,86,0.00,,,0.23,,2013-02-27 02:32:00,
2013-02-26 20:42:00,42.0,38.0,29.75,West,278,9.0,16.0,86,0.00,,,0.23,,2013-02-27 02:42:00,
2013-02-26 20:52:00,42.0,38.0,29.75,West,269,11.0,20.0,85,0.00,,,0.23,,2013-02-27 02:52:00,
2013-02-26 21:02:00,41.0,38.0,29.76,West,263,13.0,20.0,89,0.00,,,0.23,,2013-02-27 03:02:00,
2013-02-26 21:11:00,41.0,38.0,29.76,West,276,11.0,19.0,90,0.00,,,0.23,,2013-02-27 03:11:00,
2013-02-26 21:21:00,41.0,38.0,29.76,West,276,11.0,19.0,90,0.00,,,0.23,,2013-02-27 03:21:00,
2013-02-26 21:32:00,41.0,38.0,29.77,West,259,8.0,18.0,90,0.00,,,0.23,,2013-02-27 03:32:00,
2013-02-26 21:41:00,41.0,38.0,29.77,West,259,8.0,18.0,90,0.00,,,0.23,,2013-02-27 03:41:00,
2013-02-26 21:51:00,41.0,38.0,29.77,WNW,285,15.0,21.0,88,0.00,,,0.23,,2013-02-27 03:51:00,
2013-02-26 22:01:00,41.0,38.0,29.77,WNW,300,6.0,15.0,88,0.00,,,0.23,,2013-02-27 04:01:00,
2013-02-26 22:11:00,41.0,38.0,29.77,WNW,300,6.0,15.0,88,0.00,,,0.23,,2013-02-27 04:11:00,
2013-02-26 22:21:00,41.0,38.0,29.77,WNW,300,6.0,15.0,88,0.00,,,0.23,,2013-02-27 04:21:00,
2013-02-26 22:32:00,41.0,38.0,29.78,NNW,332,5.0,13.0,88,0.00,,,0.22,,2013-02-27 04:32:00,
2013-02-26 22:41:00,41.0,38.0,29.78,NNW,332,5.0,13.0,88,0.00,,,0.22,,2013-02-27 04:41:00,
2013-02-26 22:52:00,41.0,37.0,29.79,WSW,254,14.0,15.0,87,0.00,,,0.21,,2013-02-27 04:52:00,
2013-02-26 23:01:00,41.0,37.0,29.78,West,278,8.0,14.0,85,0.00,,,0.16,,2013-02-27 05:01:00,
2013-02-26 23:11:00,41.0,37.0,29.78,West,278,8.0,14.0,85,0.00,,,0.16,,2013-02-27 05:11:00,
2013-02-26 23:22:00,41.0,37.0,29.79,WSW,253,7.0,16.0,84,0.00,,,0.15,,2013-02-27 05:22:00,
2013-02-26 23:32:00,41.0,36.0,29.79,NW,310,12.0,17.0,83,0.00,,,0.15,,2013-02-27 05:32:00,
2013-02-26 23:41:00,41.0,36.0,29.79,NW,310,12.0,17.0,83,0.00,,,0.15,,2013-02-27 05:41:00,
2013-02-26 23:52:00,41.0,36.0,29.79,NW,310,12.0,17.0,83,0.00,,,0.15,,2013-02-27 05:52:00,